EJU43 LOWI-EBCI
Flight info
| Callsign | EJU43 |
|---|---|
| Flight time | 1h 7m |
| Altitude | 38000 |
| Route | MOGTI P66 KPT L608 TEDGO DCT IDOVI Z104 ODVUX/N0418F280 Z104 GESLO N852 LNO |
| Aircraft | A21N/M-SDE2E3FGHIRWXY/LB1 |
Departure
| Time | 2026-04-30 21:39 |
|---|---|
| Airport | Innsbruck Airport (LOWI) |
Arrival
| Time | 2026-04-30 22:47 |
|---|---|
| Airport | Brussels South Charleroi Airport (EBCI) |
| Time | Latitude | Longitude | Altitude | Speed | Heading |
|---|---|---|---|---|---|
| 2026-04-30 21:37 | 47.26132 | 11.35389 | 1905 ft | 17 kts | 72° |
| 2026-04-30 21:37 | 47.26139 | 11.35555 | 1904 ft | 17 kts | 111° |
| 2026-04-30 21:37 | 47.26114 | 11.35633 | 1907 ft | 7 kts | 98° |
| 2026-04-30 21:37 | 47.26129 | 11.35704 | 1902 ft | 9 kts | 20° |
| 2026-04-30 21:38 | 47.26153 | 11.35625 | 1903 ft | 1 kts | 260° |
| 2026-04-30 21:38 | 47.26123 | 11.35362 | 1898 ft | 64 kts | 262° |
| 2026-04-30 21:38 | 47.26015 | 11.34363 | 1917 ft | 130 kts | 261° |
| 2026-04-30 21:39 | 47.25862 | 11.32900 | 2053 ft | 150 kts | 259° |
| 2026-04-30 21:39 | 47.25693 | 11.31396 | 2439 ft | 153 kts | 263° |
| 2026-04-30 21:39 | 47.25542 | 11.29825 | 2966 ft | 160 kts | 261° |
| 2026-04-30 21:39 | 47.25366 | 11.28104 | 3433 ft | 182 kts | 263° |
| 2026-04-30 21:40 | 47.25422 | 11.26165 | 4068 ft | 200 kts | 285° |
| 2026-04-30 21:40 | 47.25968 | 11.24196 | 4732 ft | 220 kts | 294° |
| 2026-04-30 21:40 | 47.26607 | 11.22076 | 5454 ft | 231 kts | 294° |
| 2026-04-30 21:40 | 47.27252 | 11.19893 | 6590 ft | 234 kts | 293° |
| 2026-04-30 21:41 | 47.27904 | 11.17679 | 7585 ft | 237 kts | 294° |
| 2026-04-30 21:41 | 47.28565 | 11.15425 | 8517 ft | 242 kts | 294° |
| 2026-04-30 21:41 | 47.29238 | 11.13130 | 9338 ft | 249 kts | 295° |
| 2026-04-30 21:41 | 47.29945 | 11.10705 | 9804 ft | 275 kts | 294° |
| 2026-04-30 21:42 | 47.30514 | 11.07957 | 9990 ft | 303 kts | 277° |
| 2026-04-30 21:42 | 47.30515 | 11.04763 | 10112 ft | 308 kts | 267° |
| 2026-04-30 21:42 | 47.30364 | 11.01649 | 10244 ft | 311 kts | 266° |
| 2026-04-30 21:42 | 47.30205 | 10.98323 | 10337 ft | 343 kts | 266° |
| 2026-04-30 21:43 | 47.30047 | 10.94682 | 10611 ft | 367 kts | 267° |
| 2026-04-30 21:43 | 47.29893 | 10.90886 | 11375 ft | 374 kts | 268° |
| 2026-04-30 21:43 | 47.29984 | 10.87048 | 12235 ft | 377 kts | 281° |
| 2026-04-30 21:43 | 47.30789 | 10.83392 | 13046 ft | 378 kts | 299° |
| 2026-04-30 21:44 | 47.32285 | 10.80284 | 13834 ft | 378 kts | 317° |
| 2026-04-30 21:44 | 47.34220 | 10.77655 | 14606 ft | 380 kts | 322° |
| 2026-04-30 21:44 | 47.36225 | 10.75082 | 15334 ft | 384 kts | 322° |
| 2026-04-30 21:44 | 47.38283 | 10.72558 | 16072 ft | 385 kts | 325° |
| 2026-04-30 21:45 | 47.40376 | 10.70079 | 16811 ft | 388 kts | 325° |
| 2026-04-30 21:45 | 47.42498 | 10.67575 | 17532 ft | 392 kts | 326° |
| 2026-04-30 21:45 | 47.44633 | 10.65052 | 18243 ft | 395 kts | 326° |
| 2026-04-30 21:45 | 47.46757 | 10.62532 | 18896 ft | 397 kts | 326° |
| 2026-04-30 21:46 | 47.48951 | 10.59934 | 19504 ft | 401 kts | 326° |
| 2026-04-30 21:46 | 47.51101 | 10.57375 | 20073 ft | 403 kts | 326° |
| 2026-04-30 21:46 | 47.53290 | 10.54770 | 20659 ft | 405 kts | 326° |
| 2026-04-30 21:46 | 47.55493 | 10.52136 | 21242 ft | 408 kts | 326° |
| 2026-04-30 21:47 | 47.57713 | 10.49484 | 21813 ft | 412 kts | 326° |
| 2026-04-30 21:47 | 47.59950 | 10.46807 | 22383 ft | 415 kts | 326° |
| 2026-04-30 21:47 | 47.62198 | 10.44100 | 22978 ft | 418 kts | 325° |
| 2026-04-30 21:47 | 47.64467 | 10.41370 | 23553 ft | 422 kts | 326° |
| 2026-04-30 21:48 | 47.66725 | 10.38650 | 24075 ft | 425 kts | 325° |
| 2026-04-30 21:48 | 47.69029 | 10.35875 | 24543 ft | 429 kts | 326° |
| 2026-04-30 21:48 | 47.71355 | 10.33081 | 25003 ft | 432 kts | 326° |
| 2026-04-30 21:48 | 47.71561 | 10.32834 | 25044 ft | 433 kts | 326° |
| 2026-04-30 21:49 | 47.72872 | 10.31255 | 25306 ft | 434 kts | 326° |
| 2026-04-30 21:50 | 47.75192 | 10.28446 | 25769 ft | 438 kts | 326° |
| 2026-04-30 21:50 | 47.77558 | 10.25580 | 26231 ft | 441 kts | 326° |
| 2026-04-30 21:50 | 47.79946 | 10.22691 | 26688 ft | 444 kts | 326° |
| 2026-04-30 21:50 | 47.82344 | 10.19784 | 27120 ft | 447 kts | 326° |
| 2026-04-30 21:51 | 47.84761 | 10.16848 | 27550 ft | 450 kts | 326° |
| 2026-04-30 21:51 | 47.87199 | 10.13891 | 27959 ft | 453 kts | 326° |
| 2026-04-30 21:51 | 47.89647 | 10.10906 | 28360 ft | 456 kts | 326° |
| 2026-04-30 21:51 | 47.92099 | 10.07909 | 28851 ft | 456 kts | 326° |
| 2026-04-30 21:52 | 47.94517 | 10.04955 | 29398 ft | 454 kts | 326° |
| 2026-04-30 21:52 | 47.96956 | 10.01982 | 29941 ft | 453 kts | 327° |
| 2026-04-30 21:52 | 47.99396 | 9.99007 | 30466 ft | 452 kts | 327° |
| 2026-04-30 21:52 | 48.01829 | 9.96027 | 30921 ft | 451 kts | 326° |
| 2026-04-30 21:53 | 48.04249 | 9.93058 | 31386 ft | 450 kts | 326° |
| 2026-04-30 21:53 | 48.06663 | 9.90098 | 31868 ft | 448 kts | 326° |
| 2026-04-30 21:53 | 48.09069 | 9.87144 | 32339 ft | 446 kts | 326° |
| 2026-04-30 21:53 | 48.11460 | 9.84207 | 32829 ft | 444 kts | 326° |
| 2026-04-30 21:54 | 48.13839 | 9.81266 | 33286 ft | 442 kts | 326° |
| 2026-04-30 21:54 | 48.16211 | 9.78345 | 33713 ft | 441 kts | 326° |
| 2026-04-30 21:54 | 48.18544 | 9.75464 | 34138 ft | 440 kts | 326° |
| 2026-04-30 21:54 | 48.20898 | 9.72555 | 34514 ft | 438 kts | 326° |
| 2026-04-30 21:55 | 48.23248 | 9.69648 | 34833 ft | 438 kts | 326° |
| 2026-04-30 21:55 | 48.25591 | 9.66734 | 35137 ft | 437 kts | 326° |
| 2026-04-30 21:55 | 48.27929 | 9.63834 | 35433 ft | 436 kts | 326° |
| 2026-04-30 21:55 | 48.30263 | 9.60922 | 35728 ft | 436 kts | 325° |
| 2026-04-30 21:56 | 48.32590 | 9.58002 | 36004 ft | 436 kts | 325° |
| 2026-04-30 21:56 | 48.34907 | 9.55085 | 36278 ft | 435 kts | 325° |
| 2026-04-30 21:56 | 48.37239 | 9.52163 | 36553 ft | 435 kts | 325° |
| 2026-04-30 21:56 | 48.39535 | 9.49290 | 36831 ft | 435 kts | 325° |
| 2026-04-30 21:57 | 48.41860 | 9.46382 | 37099 ft | 435 kts | 325° |
| 2026-04-30 21:57 | 48.44186 | 9.43472 | 37364 ft | 434 kts | 325° |
| 2026-04-30 21:57 | 48.46511 | 9.40570 | 37635 ft | 434 kts | 326° |
| 2026-04-30 21:57 | 48.48835 | 9.37685 | 37883 ft | 434 kts | 326° |
| 2026-04-30 21:58 | 48.51158 | 9.34785 | 38136 ft | 433 kts | 325° |
| 2026-04-30 21:58 | 48.53476 | 9.31878 | 38360 ft | 434 kts | 325° |
| 2026-04-30 21:58 | 48.58083 | 9.26080 | 38388 ft | 435 kts | 325° |
| 2026-04-30 21:59 | 48.62760 | 9.20167 | 38353 ft | 437 kts | 325° |
| 2026-04-30 22:00 | 48.69717 | 9.11349 | 38349 ft | 435 kts | 325° |
| 2026-04-30 22:00 | 48.76664 | 9.02484 | 38344 ft | 436 kts | 324° |
| 2026-04-30 22:01 | 48.81292 | 8.96554 | 38358 ft | 436 kts | 324° |
| 2026-04-30 22:01 | 48.85896 | 8.90634 | 38354 ft | 437 kts | 324° |
| 2026-04-30 22:02 | 48.90536 | 8.84663 | 38365 ft | 437 kts | 324° |
| 2026-04-30 22:02 | 48.95197 | 8.78714 | 38361 ft | 438 kts | 324° |
| 2026-04-30 22:03 | 48.99830 | 8.72780 | 38357 ft | 438 kts | 324° |
| 2026-04-30 22:03 | 49.04485 | 8.66773 | 38369 ft | 439 kts | 324° |
| 2026-04-30 22:04 | 49.09140 | 8.60733 | 38361 ft | 440 kts | 324° |
| 2026-04-30 22:05 | 49.16128 | 8.51646 | 38366 ft | 440 kts | 323° |
| 2026-04-30 22:05 | 49.20773 | 8.45529 | 38367 ft | 441 kts | 323° |
| 2026-04-30 22:06 | 49.25407 | 8.39454 | 38369 ft | 442 kts | 323° |
| 2026-04-30 22:06 | 49.32415 | 8.30285 | 38370 ft | 442 kts | 323° |
| 2026-04-30 22:07 | 49.37075 | 8.24158 | 38372 ft | 441 kts | 323° |
| 2026-04-30 22:07 | 49.41726 | 8.17986 | 38376 ft | 441 kts | 322° |
| 2026-04-30 22:08 | 49.46377 | 8.11850 | 38377 ft | 441 kts | 323° |
| 2026-04-30 22:08 | 49.51006 | 8.05748 | 38374 ft | 441 kts | 323° |
| 2026-04-30 22:09 | 49.55660 | 7.99587 | 38363 ft | 441 kts | 322° |
| 2026-04-30 22:09 | 49.60296 | 7.93415 | 38360 ft | 441 kts | 322° |
| 2026-04-30 22:10 | 49.64932 | 7.87198 | 38361 ft | 441 kts | 322° |
| 2026-04-30 22:10 | 49.69574 | 7.80992 | 38350 ft | 442 kts | 322° |
| 2026-04-30 22:11 | 49.76505 | 7.71690 | 38369 ft | 442 kts | 322° |
| 2026-04-30 22:12 | 49.81138 | 7.65417 | 38369 ft | 443 kts | 322° |
| 2026-04-30 22:12 | 49.85779 | 7.59149 | 38364 ft | 443 kts | 322° |
| 2026-04-30 22:13 | 49.90413 | 7.52858 | 38359 ft | 443 kts | 321° |
| 2026-04-30 22:13 | 49.95018 | 7.46593 | 38354 ft | 443 kts | 321° |
| 2026-04-30 22:14 | 49.99651 | 7.40289 | 38350 ft | 443 kts | 321° |
| 2026-04-30 22:14 | 50.04194 | 7.33818 | 38351 ft | 445 kts | 314° |
| 2026-04-30 22:14 | 50.06061 | 7.29958 | 38348 ft | 449 kts | 303° |
| 2026-04-30 22:15 | 50.07413 | 7.25573 | 38332 ft | 449 kts | 291° |
| 2026-04-30 22:15 | 50.08182 | 7.20864 | 38046 ft | 452 kts | 279° |
| 2026-04-30 22:15 | 50.08455 | 7.16032 | 37781 ft | 455 kts | 275° |
| 2026-04-30 22:15 | 50.08623 | 7.11113 | 37510 ft | 457 kts | 274° |
| 2026-04-30 22:16 | 50.08784 | 7.06164 | 37242 ft | 457 kts | 274° |
| 2026-04-30 22:16 | 50.08963 | 7.01221 | 36975 ft | 458 kts | 275° |
| 2026-04-30 22:17 | 50.09465 | 6.86338 | 36193 ft | 460 kts | 270° |
| 2026-04-30 22:17 | 50.09384 | 6.81355 | 35912 ft | 461 kts | 269° |
| 2026-04-30 22:17 | 50.09172 | 6.71421 | 35417 ft | 463 kts | 269° |
| 2026-04-30 22:18 | 50.09066 | 6.66413 | 35169 ft | 463 kts | 269° |
| 2026-04-30 22:18 | 50.08850 | 6.56365 | 34682 ft | 465 kts | 269° |
| 2026-04-30 22:19 | 50.08631 | 6.46293 | 34177 ft | 466 kts | 269° |
| 2026-04-30 22:19 | 50.08518 | 6.41253 | 33916 ft | 467 kts | 269° |
| 2026-04-30 22:19 | 50.08277 | 6.31140 | 33366 ft | 468 kts | 268° |
| 2026-04-30 22:20 | 50.08155 | 6.26134 | 33101 ft | 469 kts | 268° |
| 2026-04-30 22:20 | 50.07902 | 6.15968 | 32573 ft | 471 kts | 268° |
| 2026-04-30 22:20 | 50.07842 | 6.10871 | 32304 ft | 472 kts | 273° |
| 2026-04-30 22:21 | 50.08301 | 6.05841 | 32039 ft | 471 kts | 285° |
| 2026-04-30 22:21 | 50.09484 | 6.01089 | 31781 ft | 469 kts | 300° |
| 2026-04-30 22:21 | 50.11325 | 5.96920 | 31532 ft | 467 kts | 313° |
| 2026-04-30 22:21 | 50.13699 | 5.93514 | 31284 ft | 464 kts | 326° |
| 2026-04-30 22:22 | 50.16439 | 5.91043 | 31038 ft | 460 kts | 339° |
| 2026-04-30 22:22 | 50.19472 | 5.89556 | 30786 ft | 456 kts | 352° |
| 2026-04-30 22:22 | 50.22610 | 5.89132 | 30541 ft | 451 kts | 4° |
| 2026-04-30 22:22 | 50.25738 | 5.89308 | 30305 ft | 453 kts | 1° |
| 2026-04-30 22:23 | 50.28872 | 5.88495 | 29999 ft | 460 kts | 346° |
| 2026-04-30 22:23 | 50.31894 | 5.86803 | 29728 ft | 462 kts | 341° |
| 2026-04-30 22:23 | 50.34889 | 5.84979 | 29453 ft | 461 kts | 342° |
| 2026-04-30 22:23 | 50.37875 | 5.83199 | 29169 ft | 459 kts | 342° |
| 2026-04-30 22:24 | 50.40818 | 5.81455 | 28887 ft | 457 kts | 342° |
| 2026-04-30 22:24 | 50.43785 | 5.79718 | 28613 ft | 455 kts | 342° |
| 2026-04-30 22:24 | 50.46748 | 5.77981 | 28349 ft | 453 kts | 342° |
| 2026-04-30 22:24 | 50.49696 | 5.76275 | 28090 ft | 451 kts | 342° |
| 2026-04-30 22:25 | 50.52637 | 5.74561 | 27825 ft | 450 kts | 342° |
| 2026-04-30 22:25 | 50.55544 | 5.72747 | 27557 ft | 450 kts | 338° |
| 2026-04-30 22:25 | 50.58256 | 5.70299 | 27299 ft | 451 kts | 328° |
| 2026-04-30 22:25 | 50.60632 | 5.67070 | 27032 ft | 453 kts | 315° |
| 2026-04-30 22:26 | 50.64541 | 5.59372 | 26539 ft | 452 kts | 309° |
| 2026-04-30 22:26 | 50.66477 | 5.55480 | 26290 ft | 450 kts | 310° |
| 2026-04-30 22:26 | 50.68418 | 5.51621 | 26040 ft | 449 kts | 310° |
| 2026-04-30 22:27 | 50.70360 | 5.47781 | 25793 ft | 447 kts | 310° |
| 2026-04-30 22:27 | 50.72300 | 5.43956 | 25422 ft | 444 kts | 310° |
| 2026-04-30 22:27 | 50.76121 | 5.36413 | 24242 ft | 437 kts | 310° |
| 2026-04-30 22:28 | 50.79886 | 5.28955 | 22860 ft | 433 kts | 310° |
| 2026-04-30 22:28 | 50.81732 | 5.25280 | 22179 ft | 432 kts | 310° |
| 2026-04-30 22:29 | 50.86949 | 5.13794 | 20276 ft | 428 kts | 295° |
| 2026-04-30 22:29 | 50.87797 | 5.09530 | 19722 ft | 427 kts | 281° |
| 2026-04-30 22:30 | 50.88657 | 4.90919 | 17422 ft | 421 kts | 274° |
| 2026-04-30 22:31 | 50.89236 | 4.77281 | 15750 ft | 407 kts | 274° |
| 2026-04-30 22:32 | 50.89787 | 4.64174 | 14182 ft | 389 kts | 273° |
| 2026-04-30 22:32 | 50.89607 | 4.55772 | 13115 ft | 381 kts | 252° |
| 2026-04-30 22:33 | 50.84623 | 4.46750 | 11650 ft | 369 kts | 212° |
| 2026-04-30 22:33 | 50.80537 | 4.42206 | 11091 ft | 346 kts | 213° |
| 2026-04-30 22:34 | 50.75046 | 4.35783 | 10607 ft | 309 kts | 214° |
| 2026-04-30 22:35 | 50.71692 | 4.31861 | 9956 ft | 300 kts | 211° |
| 2026-04-30 22:36 | 50.64371 | 4.33129 | 8270 ft | 275 kts | 148° |
| 2026-04-30 22:36 | 50.62708 | 4.34600 | 7889 ft | 273 kts | 148° |
| 2026-04-30 22:37 | 50.57791 | 4.38811 | 6830 ft | 265 kts | 149° |
| 2026-04-30 22:37 | 50.56174 | 4.40174 | 6510 ft | 262 kts | 149° |
| 2026-04-30 22:37 | 50.52970 | 4.42867 | 5858 ft | 261 kts | 149° |
| 2026-04-30 22:38 | 50.49480 | 4.43822 | 5236 ft | 267 kts | 195° |
| 2026-04-30 22:38 | 50.47059 | 4.39573 | 4643 ft | 280 kts | 256° |
| 2026-04-30 22:39 | 50.47041 | 4.36513 | 4336 ft | 282 kts | 274° |
| 2026-04-30 22:39 | 50.47581 | 4.27715 | 3947 ft | 250 kts | 263° |
| 2026-04-30 22:40 | 50.45744 | 4.20610 | 3980 ft | 233 kts | 234° |
| 2026-04-30 22:41 | 50.42097 | 4.18987 | 3481 ft | 181 kts | 149° |
| 2026-04-30 22:41 | 50.40159 | 4.21145 | 2997 ft | 161 kts | 124° |
| 2026-04-30 22:42 | 50.40707 | 4.27180 | 2446 ft | 131 kts | 76° |
| 2026-04-30 22:43 | 50.41470 | 4.29796 | 2482 ft | 134 kts | 75° |
| 2026-04-30 22:43 | 50.42239 | 4.32429 | 2316 ft | 132 kts | 75° |
| 2026-04-30 22:44 | 50.42984 | 4.34986 | 1935 ft | 127 kts | 76° |
| 2026-04-30 22:45 | 50.44507 | 4.40146 | 1212 ft | 133 kts | 72° |
| 2026-04-30 22:45 | 50.45281 | 4.42814 | 860 ft | 136 kts | 68° |
| 2026-04-30 22:46 | 50.46053 | 4.45485 | 633 ft | 126 kts | 68° |
| 2026-04-30 22:47 | 50.46677 | 4.47666 | 620 ft | 0 kts | 60° |
| 2026-04-30 22:47 | 50.46678 | 4.47669 | 623 ft | 1 kts | 59° |
| 2026-04-30 22:48 | 50.46680 | 4.47673 | 622 ft | 1 kts | 59° |
| 2026-04-30 22:49 | 50.46821 | 4.47684 | 620 ft | 16 kts | 334° |
| 2026-04-30 22:49 | 50.46959 | 4.47480 | 628 ft | 7 kts | 323° |
| 2026-04-30 22:50 | 50.46968 | 4.47470 | 622 ft | 0 kts | 336° |